sensor_id;sensor_type;location;lat;lon;timestamp;P1;durP1;ratioP1;P2;durP2;ratioP2
67508;SDS011;54354;44.724;11.284;2023-05-10T00:01:05;10.00;;;7.55;;
67508;SDS011;54354;44.724;11.284;2023-05-10T00:03:31;7.50;;;6.72;;
67508;SDS011;54354;44.724;11.284;2023-05-10T00:05:56;7.35;;;6.63;;
67508;SDS011;54354;44.724;11.284;2023-05-10T00:08:22;9.27;;;7.32;;
67508;SDS011;54354;44.724;11.284;2023-05-10T00:10:48;8.00;;;7.28;;
67508;SDS011;54354;44.724;11.284;2023-05-10T00:13:14;8.77;;;7.93;;
67508;SDS011;54354;44.724;11.284;2023-05-10T00:15:39;11.93;;;8.63;;
67508;SDS011;54354;44.724;11.284;2023-05-10T00:18:05;11.02;;;8.85;;
67508;SDS011;54354;44.724;11.284;2023-05-10T00:20:30;9.38;;;8.00;;
67508;SDS011;54354;44.724;11.284;2023-05-10T00:22:56;9.48;;;7.60;;
67508;SDS011;54354;44.724;11.284;2023-05-10T00:25:21;12.23;;;7.90;;
67508;SDS011;54354;44.724;11.284;2023-05-10T00:27:47;9.70;;;7.80;;
67508;SDS011;54354;44.724;11.284;2023-05-10T00:30:13;10.25;;;7.65;;
67508;SDS011;54354;44.724;11.284;2023-05-10T00:32:38;11.00;;;7.88;;
67508;SDS011;54354;44.724;11.284;2023-05-10T00:35:04;10.68;;;7.90;;
67508;SDS011;54354;44.724;11.284;2023-05-10T00:37:30;8.70;;;7.30;;
67508;SDS011;54354;44.724;11.284;2023-05-10T00:39:55;9.40;;;7.40;;
67508;SDS011;54354;44.724;11.284;2023-05-10T00:42:21;8.10;;;7.30;;
67508;SDS011;54354;44.724;11.284;2023-05-10T00:44:47;7.15;;;6.45;;
67508;SDS011;54354;44.724;11.284;2023-05-10T00:47:13;8.80;;;6.20;;
67508;SDS011;54354;44.724;11.284;2023-05-10T00:49:39;6.75;;;6.00;;
67508;SDS011;54354;44.724;11.284;2023-05-10T00:52:05;7.97;;;5.63;;
67508;SDS011;54354;44.724;11.284;2023-05-10T00:54:31;6.13;;;5.53;;
67508;SDS011;54354;44.724;11.284;2023-05-10T00:56:57;7.18;;;5.55;;
67508;SDS011;54354;44.724;11.284;2023-05-10T00:59:23;6.15;;;5.55;;
67508;SDS011;54354;44.724;11.284;2023-05-10T01:01:49;7.43;;;5.82;;
67508;SDS011;54354;44.724;11.284;2023-05-10T01:04:16;8.85;;;5.43;;
67508;SDS011;54354;44.724;11.284;2023-05-10T01:06:45;8.07;;;6.00;;
67508;SDS011;54354;44.724;11.284;2023-05-10T01:09:10;5.95;;;5.32;;
67508;SDS011;54354;44.724;11.284;2023-05-10T01:11:37;5.93;;;5.18;;
67508;SDS011;54354;44.724;11.284;2023-05-10T01:14:04;5.70;;;5.15;;
67508;SDS011;54354;44.724;11.284;2023-05-10T01:16:36;6.55;;;5.57;;
67508;SDS011;54354;44.724;11.284;2023-05-10T01:19:08;8.63;;;4.88;;
67508;SDS011;54354;44.724;11.284;2023-05-10T01:21:48;7.43;;;5.10;;
67508;SDS011;54354;44.724;11.284;2023-05-10T01:32:44;7.57;;;5.20;;
67508;SDS011;54354;44.724;11.284;2023-05-10T01:35:25;6.30;;;5.70;;
67508;SDS011;54354;44.724;11.284;2023-05-10T01:40:40;6.47;;;5.88;;
67508;SDS011;54354;44.724;11.284;2023-05-10T01:43:19;7.95;;;6.63;;
67508;SDS011;54354;44.724;11.284;2023-05-10T01:46:10;7.00;;;6.30;;
67508;SDS011;54354;44.724;11.284;2023-05-10T01:48:48;10.77;;;7.20;;
67508;SDS011;54354;44.724;11.284;2023-05-10T01:51:19;7.93;;;6.78;;
67508;SDS011;54354;44.724;11.284;2023-05-10T01:53:48;11.75;;;7.30;;
67508;SDS011;54354;44.724;11.284;2023-05-10T01:56:16;8.18;;;7.40;;
67508;SDS011;54354;44.724;11.284;2023-05-10T01:58:44;7.95;;;7.13;;
67508;SDS011;54354;44.724;11.284;2023-05-10T02:01:15;9.18;;;7.40;;
67508;SDS011;54354;44.724;11.284;2023-05-10T02:04:39;7.55;;;6.85;;
67508;SDS011;54354;44.724;11.284;2023-05-10T02:07:06;7.47;;;6.70;;
67508;SDS011;54354;44.724;11.284;2023-05-10T02:09:34;9.43;;;6.70;;
67508;SDS011;54354;44.724;11.284;2023-05-10T02:12:01;7.07;;;6.43;;
67508;SDS011;54354;44.724;11.284;2023-05-10T02:14:30;8.15;;;7.18;;
